Time;durP1;ratioP1;P1;durP2;ratioP2;P2;SDS_P1;SDS_P2;PMS_P1;PMS_P2;Temp;Humidity;BMP_temperature;BMP_pressure;BME280_temperature;BME280_humidity;BME280_pressure;Samples;Min_cycle;Max_cycle;Signal;HPM_P1;HPM_P2
2024/01/31 00:02:17;;;;;;;;;;;19.40;56.80;;;;;;5115606;28;19931;-64
2024/01/31 00:04:43;;;;;;;;;;;19.40;56.90;;;;;;5116113;28;19947;-64
2024/01/31 00:07:08;;;;;;;;;;;19.40;56.80;;;;;;5096667;28;19924;-65
2024/01/31 00:09:34;;;;;;;;;;;19.40;56.80;;;;;;5096570;28;19949;-64
2024/01/31 00:11:59;;;;;;;;;;;19.40;56.90;;;;;;5096648;28;19923;-64
2024/01/31 00:14:25;;;;;;;;;;;19.30;57.50;;;;;;5114785;28;19923;-64
2024/01/31 00:16:51;;;;;;;;;;;19.30;56.80;;;;;;5115796;28;20359;-65
2024/01/31 00:19:16;;;;;;;;;;;19.30;56.80;;;;;;5131352;27;19931;-64
2024/01/31 00:21:42;;;;;;;;;;;19.30;56.70;;;;;;5096788;28;19923;-64
2024/01/31 00:24:09;;;;;;;;;;;19.30;56.70;;;;;;5115221;28;19935;-64
2024/01/31 00:26:35;;;;;;;;;;;19.30;56.70;;;;;;5097446;28;19940;-64
2024/01/31 00:29:00;;;;;;;;;;;19.30;56.70;;;;;;5130315;27;19924;-65
2024/01/31 00:31:26;;;;;;;;;;;19.30;56.70;;;;;;5097273;28;19963;-65
2024/01/31 00:33:51;;;;;;;;;;;19.30;56.70;;;;;;5115003;28;20391;-65
2024/01/31 00:36:17;;;;;;;;;;;19.30;56.70;;;;;;5096331;28;19969;-65
2024/01/31 00:38:43;;;;;;;;;;;19.20;56.60;;;;;;5115282;28;19931;-65
2024/01/31 00:41:08;;;;;;;;;;;19.20;56.60;;;;;;5096166;28;19924;-65
2024/01/31 00:43:34;;;;;;;;;;;19.20;56.60;;;;;;5114429;28;19935;-64
2024/01/31 00:46:02;;;;;;;;;;;19.20;56.70;;;;;;5096770;28;19920;-65
2024/01/31 00:48:27;;;;;;;;;;;19.20;56.60;;;;;;5097119;28;20014;-65
2024/01/31 00:50:53;;;;;;;;;;;19.20;56.60;;;;;;5113506;28;20450;-64
2024/01/31 00:53:18;;;;;;;;;;;19.20;56.60;;;;;;5114628;28;19924;-64
2024/01/31 00:55:44;;;;;;;;;;;19.20;56.60;;;;;;5096778;28;19935;-64
2024/01/31 00:58:09;;;;;;;;;;;19.10;56.60;;;;;;5095728;28;19958;-65
2024/01/31 01:00:35;;;;;;;;;;;19.20;56.60;;;;;;5114770;28;20404;-64
2024/01/31 01:03:00;;;;;;;;;;;19.10;56.50;;;;;;5095122;28;19924;-64
2024/01/31 01:05:26;;;;;;;;;;;19.10;56.50;;;;;;5096354;28;20049;-65
2024/01/31 01:07:51;;;;;;;;;;;19.10;56.50;;;;;;5095825;28;19927;-64
2024/01/31 01:10:17;;;;;;;;;;;19.10;56.50;;;;;;5113949;28;19924;-65
2024/01/31 01:12:42;;;;;;;;;;;19.10;56.50;;;;;;5114609;28;20285;-65
2024/01/31 01:15:08;;;;;;;;;;;19.10;56.50;;;;;;5114440;28;19924;-65
2024/01/31 01:17:34;;;;;;;;;;;19.10;56.50;;;;;;5095509;28;19931;-65
2024/01/31 01:20:00;;;;;;;;;;;19.10;56.40;;;;;;5095813;28;19923;-65
2024/01/31 01:22:25;;;;;;;;;;;19.10;56.50;;;;;;5113910;28;20001;-65
2024/01/31 01:24:52;;;;;;;;;;;19.10;56.50;;;;;;5095469;28;20286;-65
2024/01/31 01:27:18;;;;;;;;;;;19.00;56.40;;;;;;5096453;28;19928;-65
2024/01/31 01:29:43;;;;;;;;;;;19.10;56.40;;;;;;5096338;28;19950;-65
2024/01/31 01:32:09;;;;;;;;;;;19.00;56.40;;;;;;5112524;28;19920;-64
2024/01/31 01:34:34;;;;;;;;;;;19.00;56.40;;;;;;5114042;28;20369;-65
2024/01/31 01:37:00;;;;;;;;;;;19.00;56.40;;;;;;5113697;28;20283;-65
2024/01/31 01:39:27;;;;;;;;;;;19.00;56.40;;;;;;5112609;28;20385;-64
2024/01/31 01:41:52;;;;;;;;;;;19.00;56.40;;;;;;5095586;28;19930;-64
2024/01/31 01:44:18;;;;;;;;;;;19.00;56.30;;;;;;5096075;28;19920;-64
2024/01/31 01:46:43;;;;;;;;;;;19.00;56.40;;;;;;5113213;28;20347;-64
2024/01/31 01:49:12;;;;;;;;;;;19.00;56.30;;;;;;5095062;28;19920;-65
2024/01/31 01:51:37;;;;;;;;;;;19.00;56.40;;;;;;5113815;28;20378;-64
2024/01/31 01:54:03;;;;;;;;;;;19.00;56.30;;;;;;5094440;28;19968;-65
2024/01/31 01:56:28;;;;;;;;;;;19.00;56.40;;;;;;5095441;28;19926;-65
2024/01/31 01:58:54;;;;;;;;;;;19.00;56.40;;;;;;5069479;28;19972;-64
2024/01/31 02:01:20;;;;;;;;;;;19.00;56.40;;;;;;5113073;28;20375;-64
2024/01/31 02:03:45;;;;;;;;;;;19.00;56.30;;;;;;5095701;28;19924;-64
2024/01/31 02:06:11;;;;;;;;;;;19.00;56.40;;;;;;5095025;28;20909;-64
2024/01/31 02:08:36;;;;;;;;;;;18.90;56.40;;;;;;5094924;28;19946;-65
2024/01/31 02:11:02;;;;;;;;;;;18.90;56.30;;;;;;5108977;28;19924;-65
2024/01/31 02:13:28;;;;;;;;;;;18.90;56.40;;;;;;5074369;28;20035;-64
2024/01/31 02:15:54;;;;;;;;;;;18.90;56.30;;;;;;5103758;28;19924;-64
2024/01/31 02:18:20;;;;;;;;;;;18.90;56.30;;;;;;5095102;28;20022;-64
2024/01/31 02:20:46;;;;;;;;;;;18.90;56.30;;;;;;5098082;28;19997;-64
2024/01/31 02:23:11;;;;;;;;;;;18.90;56.30;;;;;;5099226;28;20367;-64
2024/01/31 02:25:37;;;;;;;;;;;18.90;56.30;;;;;;5099576;28;20409;-65
2024/01/31 02:28:02;;;;;;;;;;;18.90;56.40;;;;;;5098637;28;19924;-64
2024/01/31 02:30:28;;;;;;;;;;;18.90;56.40;;;;;;5099659;28;20450;-65
2024/01/31 02:32:56;;;;;;;;;;;18.90;56.40;;;;;;5132606;27;19924;-64
2024/01/31 02:35:22;;;;;;;;;;;18.90;56.40;;;;;;5132658;27;20372;-64
2024/01/31 02:37:48;;;;;;;;;;;18.90;56.40;;;;;;5133260;27;19948;-64
2024/01/31 02:40:14;;;;;;;;;;;18.90;56.30;;;;;;5098676;28;20019;-64
2024/01/31 02:42:40;;;;;;;;;;;18.90;56.30;;;;;;5132341;27;20061;-64
2024/01/31 02:45:06;;;;;;;;;;;18.90;56.30;;;;;;5117188;28;20014;-64
2024/01/31 02:47:33;;;;;;;;;;;18.90;57.00;;;;;;5117036;28;19923;-64
2024/01/31 02:49:59;;;;;;;;;;;18.90;56.20;;;;;;5097990;28;19924;-64
2024/01/31 02:52:25;;;;;;;;;;;18.90;56.30;;;;;;5117344;28;19935;-64
2024/01/31 02:54:51;;;;;;;;;;;18.90;56.20;;;;;;5098818;28;19923;-64
2024/01/31 02:57:17;;;;;;;;;;;18.90;56.20;;;;;;5116721;28;19924;-64
2024/01/31 02:59:42;;;;;;;;;;;18.90;56.20;;;;;;5099028;28;19924;-64
2024/01/31 03:02:08;;;;;;;;;;;18.90;56.20;;;;;;5098163;28;19927;-64
2024/01/31 03:04:33;;;;;;;;;;;18.90;56.20;;;;;;5116062;28;19927;-64
2024/01/31 03:06:59;;;;;;;;;;;19.00;56.20;;;;;;5098486;28;20248;-65
2024/01/31 03:09:26;;;;;;;;;;;19.00;56.90;;;;;;5098391;28;19971;-64
2024/01/31 03:11:52;;;;;;;;;;;19.00;56.20;;;;;;5097670;28;19931;-64
2024/01/31 03:14:17;;;;;;;;;;;19.00;56.20;;;;;;5098605;28;19923;-64
2024/01/31 03:16:43;;;;;;;;;;;19.00;56.10;;;;;;5098066;28;19969;-64
2024/01/31 03:19:09;;;;;;;;;;;19.00;56.10;;;;;;5098177;28;20014;-64
2024/01/31 03:21:34;;;;;;;;;;;19.00;56.10;;;;;;5097927;28;19935;-64
2024/01/31 03:24:00;;;;;;;;;;;19.00;56.10;;;;;;5097235;28;20419;-64
2024/01/31 03:26:25;;;;;;;;;;;19.00;56.10;;;;;;5116728;28;20371;-64
2024/01/31 03:28:51;;;;;;;;;;;19.00;56.10;;;;;;5116842;28;20006;-65
2024/01/31 03:31:17;;;;;;;;;;;19.00;56.10;;;;;;5097414;28;20010;-65
2024/01/31 03:33:42;;;;;;;;;;;19.00;56.00;;;;;;5116835;28;19923;-64
2024/01/31 03:36:11;;;;;;;;;;;19.10;56.00;;;;;;5116311;28;19923;-64
2024/01/31 03:38:37;;;;;;;;;;;19.00;56.00;;;;;;5131315;27;20383;-64
2024/01/31 03:41:08;;;;;;;;;;;19.00;56.00;;;;;;5131816;27;19923;-64
2024/01/31 03:43:34;;;;;;;;;;;19.10;56.00;;;;;;5098141;28;19947;-64
2024/01/31 03:46:00;;;;;;;;;;;19.10;56.00;;;;;;5096810;28;20380;-64
2024/01/31 03:48:28;;;;;;;;;;;19.10;56.00;;;;;;5097849;28;19927;-65
2024/01/31 03:50:54;;;;;;;;;;;19.10;56.00;;;;;;5097429;28;19919;-65
2024/01/31 03:53:19;;;;;;;;;;;19.10;55.90;;;;;;5097267;28;19924;-64
2024/01/31 03:55:46;;;;;;;;;;;19.10;55.90;;;;;;5097984;28;20371;-64
2024/01/31 03:58:11;;;;;;;;;;;19.10;55.90;;;;;;5115739;28;20335;-64
2024/01/31 04:00:37;;;;;;;;;;;19.10;55.90;;;;;;5115195;28;19927;-64
2024/01/31 04:03:02;;;;;;;;;;;19.20;55.90;;;;;;5115777;28;20010;-64
2024/01/31 04:05:28;;;;;;;;;;;19.20;55.90;;;;;;5097710;28;19930;-64
2024/01/31 04:07:53;;;;;;;;;;;19.20;55.90;;;;;;5096736;28;20368;-64
2024/01/31 04:10:19;;;;;;;;;;;19.20;55.90;;;;;;5115571;28;20014;-64
2024/01/31 04:12:45;;;;;;;;;;;19.20;55.90;;;;;;5115942;28;19967;-64
2024/01/31 04:15:10;;;;;;;;;;;19.20;55.90;;;;;;5130368;27;20010;-64
2024/01/31 04:17:36;;;;;;;;;;;19.20;55.90;;;;;;5115834;28;20372;-64
2024/01/31 04:20:01;;;;;;;;;;;19.30;55.90;;;;;;5096190;28;19977;-64
2024/01/31 04:22:27;;;;;;;;;;;19.30;55.90;;;;;;5115568;28;19927;-64
2024/01/31 04:24:52;;;;;;;;;;;19.30;55.80;;;;;;5115171;28;19976;-64
2024/01/31 04:27:18;;;;;;;;;;;19.30;55.80;;;;;;5114087;28;19924;-64
2024/01/31 04:29:43;;;;;;;;;;;19.40;55.90;;;;;;5115492;28;19976;-64
2024/01/31 04:32:09;;;;;;;;;;;19.40;55.80;;;;;;5097104;28;19924;-64
2024/01/31 04:34:38;;;;;;;;;;;19.30;55.70;;;;;;5096607;28;20381;-64
2024/01/31 04:37:03;;;;;;;;;;;19.40;55.80;;;;;;5096532;28;20013;-64
2024/01/31 04:39:29;;;;;;;;;;;19.40;55.80;;;;;;5114787;28;19962;-64
2024/01/31 04:41:54;;;;;;;;;;;19.40;55.70;;;;;;5095850;28;20011;-64
2024/01/31 04:44:20;;;;;;;;;;;19.40;55.70;;;;;;5096948;28;20256;-64
2024/01/31 04:46:45;;;;;;;;;;;19.50;55.80;;;;;;5115804;28;20018;-64
2024/01/31 04:49:11;;;;;;;;;;;19.40;55.70;;;;;;5113893;28;20001;-64
2024/01/31 04:51:42;;;;;;;;;;;19.50;55.70;;;;;;5097075;28;20046;-64
2024/01/31 04:54:08;;;;;;;;;;;19.50;55.70;;;;;;5096268;28;20435;-64
2024/01/31 04:56:34;;;;;;;;;;;19.50;55.70;;;;;;5114123;28;19955;-64
2024/01/31 04:59:00;;;;;;;;;;;19.50;55.70;;;;;;5096384;28;19924;-64
2024/01/31 05:01:26;;;;;;;;;;;19.50;55.70;;;;;;5123810;27;19931;-64
2024/01/31 05:03:52;;;;;;;;;;;19.50;55.60;;;;;;5095116;28;19923;-64
2024/01/31 05:06:17;;;;;;;;;;;19.50;55.70;;;;;;5095888;28;19924;-64
2024/01/31 05:08:43;;;;;;;;;;;19.60;55.60;;;;;;5095769;28;19930;-64
2024/01/31 05:11:12;;;;;;;;;;;19.60;55.70;;;;;;5095381;28;19963;-64
2024/01/31 05:13:37;;;;;;;;;;;19.60;55.60;;;;;;5114259;28;19928;-64
2024/01/31 05:16:06;;;;;;;;;;;19.60;55.60;;;;;;5096500;28;19930;-64
2024/01/31 05:18:32;;;;;;;;;;;19.60;55.60;;;;;;5113923;28;19949;-64
2024/01/31 05:20:59;;;;;;;;;;;19.60;55.60;;;;;;5113932;28;19923;-64
2024/01/31 05:23:24;;;;;;;;;;;19.60;55.60;;;;;;5129589;27;19988;-64
2024/01/31 05:25:50;;;;;;;;;;;19.60;55.60;;;;;;5114142;28;20333;-64
2024/01/31 05:28:15;;;;;;;;;;;19.60;55.60;;;;;;5095549;28;19928;-64
2024/01/31 05:30:41;;;;;;;;;;;19.70;55.60;;;;;;5113515;28;19990;-64
2024/01/31 05:33:06;;;;;;;;;;;19.70;55.50;;;;;;5114081;28;19927;-64
2024/01/31 05:35:33;;;;;;;;;;;19.70;55.50;;;;;;5114393;28;19924;-64
2024/01/31 05:37:59;;;;;;;;;;;19.70;55.50;;;;;;5094587;28;20379;-64
2024/01/31 05:40:24;;;;;;;;;;;19.70;55.50;;;;;;5113681;28;19928;-63
2024/01/31 05:42:50;;;;;;;;;;;19.70;55.50;;;;;;5096043;28;19923;-64
2024/01/31 05:45:15;;;;;;;;;;;19.70;55.40;;;;;;5113057;28;19924;-64
2024/01/31 05:47:41;;;;;;;;;;;19.70;55.40;;;;;;5096009;28;19930;-64
2024/01/31 05:50:06;;;;;;;;;;;19.70;55.40;;;;;;5113365;28;20500;-64
2024/01/31 05:52:32;;;;;;;;;;;19.70;55.40;;;;;;5112532;28;20011;-64
2024/01/31 05:54:57;;;;;;;;;;;19.70;55.40;;;;;;5094363;28;20016;-64
2024/01/31 05:57:23;;;;;;;;;;;19.70;55.40;;;;;;5095826;28;19920;-64
2024/01/31 05:59:48;;;;;;;;;;;19.70;55.40;;;;;;5112980;28;20306;-64
2024/01/31 06:02:14;;;;;;;;;;;19.70;55.40;;;;;;5113501;28;19967;-64
2024/01/31 06:04:40;;;;;;;;;;;19.70;55.40;;;;;;5113713;28;20301;-64
2024/01/31 06:07:05;;;;;;;;;;;19.80;55.40;;;;;;5112732;28;19928;-64
2024/01/31 06:09:31;;;;;;;;;;;19.80;55.40;;;;;;5113596;28;20447;-64
2024/01/31 06:11:56;;;;;;;;;;;19.80;55.40;;;;;;5095295;28;19923;-64
2024/01/31 06:14:22;;;;;;;;;;;19.80;55.40;;;;;;5112699;28;19932;-64
2024/01/31 06:16:47;;;;;;;;;;;19.80;55.30;;;;;;5113453;28;19919;-64
2024/01/31 06:19:13;;;;;;;;;;;19.80;55.30;;;;;;5095389;28;19973;-64
2024/01/31 06:21:38;;;;;;;;;;;19.80;55.30;;;;;;5112579;28;19923;-64
2024/01/31 06:24:04;;;;;;;;;;;19.80;55.30;;;;;;5094911;28;19931;-64
2024/01/31 06:26:32;;;;;;;;;;;19.80;55.30;;;;;;5125107;28;19924;-64
2024/01/31 06:28:58;;;;;;;;;;;19.80;55.30;;;;;;5113125;28;19931;-65
2024/01/31 06:31:28;;;;;;;;;;;19.80;55.30;;;;;;5113356;28;19923;-64
2024/01/31 06:33:54;;;;;;;;;;;19.80;55.30;;;;;;5112217;28;20295;-64
2024/01/31 06:36:20;;;;;;;;;;;19.80;55.30;;;;;;5094577;28;19931;-65
2024/01/31 06:38:46;;;;;;;;;;;19.80;55.30;;;;;;5095255;28;20010;-65
2024/01/31 06:41:14;;;;;;;;;;;19.80;55.30;;;;;;5093994;28;20833;-65
2024/01/31 06:43:40;;;;;;;;;;;19.80;55.40;;;;;;5094970;28;20260;-64
2024/01/31 06:46:05;;;;;;;;;;;19.80;55.40;;;;;;5113011;28;20418;-63
2024/01/31 06:48:31;;;;;;;;;;;19.80;55.50;;;;;;5094307;28;19924;-63
2024/01/31 06:50:56;;;;;;;;;;;19.80;55.60;;;;;;5112941;28;19923;-63
2024/01/31 06:53:22;;;;;;;;;;;19.90;55.70;;;;;;5094863;28;19924;-64
2024/01/31 06:55:47;;;;;;;;;;;19.80;55.80;;;;;;5112434;28;19931;-63
2024/01/31 06:58:13;;;;;;;;;;;19.90;55.80;;;;;;5095083;28;19982;-64
2024/01/31 07:00:38;;;;;;;;;;;19.90;55.90;;;;;;5113093;28;19924;-63
2024/01/31 07:03:04;;;;;;;;;;;19.90;55.80;;;;;;5112372;28;19967;-64
2024/01/31 07:05:29;;;;;;;;;;;19.90;55.90;;;;;;5095925;28;19949;-64
2024/01/31 07:07:55;;;;;;;;;;;19.90;55.90;;;;;;5098629;28;19927;-64
2024/01/31 07:10:20;;;;;;;;;;;19.90;56.00;;;;;;5116253;28;19924;-64
2024/01/31 07:12:46;;;;;;;;;;;19.90;56.10;;;;;;5098877;28;19923;-64
2024/01/31 07:15:11;;;;;;;;;;;19.90;56.10;;;;;;5098467;28;20026;-64
2024/01/31 07:17:37;;;;;;;;;;;19.90;56.10;;;;;;5097746;28;19924;-65
2024/01/31 07:20:06;;;;;;;;;;;19.90;56.20;;;;;;5116490;28;19971;-65
2024/01/31 07:22:31;;;;;;;;;;;19.90;56.10;;;;;;5116361;28;19924;-64
2024/01/31 07:24:57;;;;;;;;;;;19.90;56.20;;;;;;5097245;28;20061;-61
2024/01/31 07:27:22;;;;;;;;;;;20.00;56.30;;;;;;5098217;28;20299;-63
2024/01/31 07:29:48;;;;;;;;;;;20.00;56.10;;;;;;5097178;28;19947;-63
2024/01/31 07:32:14;;;;;;;;;;;19.90;56.10;;;;;;5116021;28;19928;-62
2024/01/31 07:34:39;;;;;;;;;;;20.00;56.10;;;;;;5115960;28;19928;-63
2024/01/31 07:37:05;;;;;;;;;;;20.00;56.30;;;;;;5114546;28;19997;-63
2024/01/31 07:39:31;;;;;;;;;;;20.00;56.40;;;;;;5096805;28;19977;-62
2024/01/31 07:41:57;;;;;;;;;;;20.00;56.40;;;;;;5097166;28;19940;-63
2024/01/31 07:44:22;;;;;;;;;;;20.00;56.50;;;;;;5090245;28;19927;-62
2024/01/31 07:46:47;;;;;;;;;;;20.00;56.50;;;;;;5097707;28;20019;-61
2024/01/31 07:49:13;;;;;;;;;;;20.00;56.50;;;;;;5115810;28;19924;-64
2024/01/31 07:51:42;;;;;;;;;;;20.00;56.40;;;;;;5096343;28;19970;-62
2024/01/31 07:54:08;;;;;;;;;;;20.00;56.40;;;;;;5096952;28;19923;-63
2024/01/31 07:56:33;;;;;;;;;;;20.00;56.30;;;;;;5114873;28;20375;-63
2024/01/31 07:58:58;;;;;;;;;;;20.00;56.30;;;;;;5113779;28;19924;-63
2024/01/31 08:01:24;;;;;;;;;;;20.10;56.30;;;;;;5115542;28;19931;-66
2024/01/31 08:03:49;;;;;;;;;;;20.10;56.30;;;;;;5096039;28;20023;-63
2024/01/31 08:06:15;;;;;;;;;;;20.00;56.20;;;;;;5089738;28;19934;-63
2024/01/31 08:08:43;;;;;;;;;;;20.10;56.20;;;;;;5104991;28;19927;-63
2024/01/31 08:11:09;;;;;;;;;;;20.10;56.10;;;;;;5131596;27;19969;-63
2024/01/31 08:13:34;;;;;;;;;;;20.00;56.80;;;;;;5096789;28;20287;-63
2024/01/31 08:16:00;;;;;;;;;;;20.00;56.10;;;;;;5080881;28;19966;-63
2024/01/31 08:18:25;;;;;;;;;;;20.00;56.10;;;;;;5113218;28;20349;-63
2024/01/31 08:20:50;;;;;;;;;;;20.00;56.10;;;;;;5114938;28;19993;-63
2024/01/31 08:23:16;;;;;;;;;;;20.00;56.00;;;;;;5115877;28;19924;-63
2024/01/31 08:25:41;;;;;;;;;;;20.00;56.00;;;;;;5115415;28;20280;-63
2024/01/31 08:28:07;;;;;;;;;;;20.00;56.00;;;;;;5114675;28;19924;-63
2024/01/31 08:30:32;;;;;;;;;;;20.00;56.00;;;;;;5096689;28;20406;-63
2024/01/31 08:32:59;;;;;;;;;;;20.00;55.90;;;;;;5076596;28;19924;-63
2024/01/31 08:35:25;;;;;;;;;;;20.00;55.90;;;;;;5076428;28;20053;-63
2024/01/31 08:37:50;;;;;;;;;;;20.00;55.90;;;;;;5094761;28;20011;-63
2024/01/31 08:40:15;;;;;;;;;;;20.00;55.90;;;;;;5075531;28;19928;-63
2024/01/31 08:42:41;;;;;;;;;;;20.00;55.90;;;;;;5076555;28;19925;-63
2024/01/31 08:45:07;;;;;;;;;;;20.00;55.80;;;;;;5076264;28;20031;-63
2024/01/31 08:47:33;;;;;;;;;;;20.00;55.80;;;;;;5075838;28;19981;-63
2024/01/31 08:49:58;;;;;;;;;;;20.00;55.80;;;;;;5076249;28;20036;-63
2024/01/31 08:52:23;;;;;;;;;;;20.00;55.80;;;;;;5108259;28;20446;-63
2024/01/31 08:54:50;;;;;;;;;;;20.00;55.80;;;;;;5095848;28;19924;-63
2024/01/31 08:57:16;;;;;;;;;;;20.00;55.80;;;;;;5115121;28;19928;-63
2024/01/31 08:59:42;;;;;;;;;;;20.00;55.80;;;;;;5114889;28;19977;-63
2024/01/31 09:02:07;;;;;;;;;;;20.00;55.80;;;;;;5113807;28;19973;-63
2024/01/31 09:04:33;;;;;;;;;;;19.90;55.70;;;;;;5096788;28;19924;-63
2024/01/31 09:06:59;;;;;;;;;;;19.90;55.70;;;;;;5096155;28;19981;-63
2024/01/31 09:09:24;;;;;;;;;;;19.90;55.60;;;;;;5095536;28;19928;-63
2024/01/31 09:11:49;;;;;;;;;;;19.90;55.60;;;;;;5107892;28;19924;-63
2024/01/31 09:14:15;;;;;;;;;;;20.00;55.70;;;;;;5094163;28;19963;-63
2024/01/31 09:16:40;;;;;;;;;;;19.90;55.60;;;;;;5089881;28;19927;-63
2024/01/31 09:19:06;;;;;;;;;;;20.00;55.60;;;;;;5096230;28;19978;-63
2024/01/31 09:21:32;;;;;;;;;;;20.00;55.60;;;;;;5114269;28;19924;-63
2024/01/31 09:23:57;;;;;;;;;;;20.00;55.60;;;;;;5113450;28;19930;-63
2024/01/31 09:26:23;;;;;;;;;;;20.00;55.60;;;;;;5114511;28;19924;-63
2024/01/31 09:28:49;;;;;;;;;;;19.90;55.50;;;;;;5091595;28;20011;-63
2024/01/31 09:31:21;;;;;;;;;;;19.90;55.50;;;;;;5074801;28;20007;-63
2024/01/31 09:33:47;;;;;;;;;;;19.90;55.40;;;;;;5094013;28;19967;-63
2024/01/31 09:36:13;;;;;;;;;;;20.00;55.50;;;;;;5075578;28;19930;-63
2024/01/31 09:38:38;;;;;;;;;;;20.00;55.40;;;;;;5093120;28;20317;-63
2024/01/31 09:41:04;;;;;;;;;;;20.00;55.40;;;;;;5093334;28;20367;-63
2024/01/31 09:43:29;;;;;;;;;;;20.00;55.40;;;;;;5058087;28;19924;-63
2024/01/31 09:45:55;;;;;;;;;;;20.00;55.40;;;;;;5075325;28;19926;-63
2024/01/31 09:48:20;;;;;;;;;;;20.00;55.40;;;;;;5075496;28;20015;-63
2024/01/31 09:50:46;;;;;;;;;;;20.00;55.40;;;;;;5074688;28;19928;-63
2024/01/31 09:53:12;;;;;;;;;;;20.00;55.40;;;;;;5075243;28;19930;-63
2024/01/31 09:55:38;;;;;;;;;;;20.00;55.40;;;;;;5092222;28;20295;-63
2024/01/31 09:58:03;;;;;;;;;;;20.00;55.40;;;;;;5074411;28;19924;-63
2024/01/31 10:00:29;;;;;;;;;;;20.00;55.30;;;;;;5093416;28;19977;-62
2024/01/31 10:02:55;;;;;;;;;;;20.00;55.30;;;;;;5083285;28;19992;-62
2024/01/31 10:05:20;;;;;;;;;;;20.00;55.30;;;;;;5113264;28;19970;-63
2024/01/31 10:07:46;;;;;;;;;;;20.00;55.20;;;;;;5112799;28;19928;-65
2024/01/31 10:10:11;;;;;;;;;;;20.00;55.00;;;;;;5079067;28;19968;-62
2024/01/31 10:12:38;;;;;;;;;;;20.00;55.10;;;;;;5092698;28;19928;-62
2024/01/31 10:15:04;;;;;;;;;;;20.00;55.40;;;;;;5106477;28;20299;-61
2024/01/31 10:17:30;;;;;;;;;;;20.10;55.40;;;;;;5113419;28;19920;-62
2024/01/31 10:19:55;;;;;;;;;;;20.10;55.50;;;;;;5094045;28;19930;-62
2024/01/31 10:22:22;;;;;;;;;;;20.10;55.60;;;;;;5113613;28;20014;-62
2024/01/31 10:24:50;;;;;;;;;;;20.10;55.60;;;;;;5094955;28;19919;-62
2024/01/31 10:27:20;;;;;;;;;;;20.10;55.70;;;;;;5094192;28;20314;-62
2024/01/31 10:29:45;;;;;;;;;;;20.10;55.60;;;;;;5113261;28;20385;-62
2024/01/31 10:32:11;;;;;;;;;;;20.10;55.60;;;;;;5094826;28;19993;-62
2024/01/31 10:34:36;;;;;;;;;;;20.10;55.60;;;;;;5112434;28;19924;-62
2024/01/31 10:37:02;;;;;;;;;;;20.10;55.60;;;;;;5094806;28;20336;-62
2024/01/31 10:39:27;;;;;;;;;;;20.10;55.60;;;;;;5113399;28;19953;-62
2024/01/31 10:41:53;;;;;;;;;;;20.10;55.60;;;;;;5097591;28;20084;-62
2024/01/31 10:44:18;;;;;;;;;;;20.10;55.50;;;;;;5081502;28;19924;-64
2024/01/31 10:46:47;;;;;;;;;;;20.10;55.50;;;;;;5098740;28;19924;-64
2024/01/31 10:49:16;;;;;;;;;;;20.10;55.50;;;;;;5098916;28;19972;-63
2024/01/31 10:51:48;;;;;;;;;;;20.10;55.40;;;;;;5117820;28;19931;-63
2024/01/31 10:54:14;;;;;;;;;;;20.10;55.40;;;;;;5097356;28;19923;-65
2024/01/31 10:56:39;;;;;;;;;;;20.10;55.40;;;;;;5081593;28;20294;-63
2024/01/31 10:59:08;;;;;;;;;;;20.10;55.40;;;;;;5081964;28;20036;-62
2024/01/31 11:01:33;;;;;;;;;;;20.10;55.60;;;;;;5097222;28;19924;-62
2024/01/31 11:04:02;;;;;;;;;;;20.10;55.50;;;;;;5117114;28;19931;-63
2024/01/31 11:06:40;;;;;;;;;;;20.10;55.50;;;;;;5132977;27;19924;-63
2024/01/31 11:09:06;;;;;;;;;;;20.10;55.60;;;;;;5082314;28;19928;-63
2024/01/31 11:11:35;;;;;;;;;;;20.10;55.50;;;;;;5112535;28;19931;-63
2024/01/31 11:14:11;;;;;;;;;;;20.10;55.60;;;;;;5104131;28;20372;-62
2024/01/31 11:16:37;;;;;;;;;;;20.10;55.50;;;;;;5095720;28;20296;-62
2024/01/31 11:19:03;;;;;;;;;;;20.00;55.60;;;;;;5081514;28;20394;-62
2024/01/31 11:21:33;;;;;;;;;;;20.00;55.50;;;;;;5098523;28;19959;-62
2024/01/31 11:23:59;;;;;;;;;;;20.00;55.60;;;;;;5097017;28;19924;-62
2024/01/31 11:26:28;;;;;;;;;;;20.00;55.50;;;;;;5098326;28;19930;-65
2024/01/31 11:28:55;;;;;;;;;;;20.00;55.50;;;;;;5132017;27;19924;-63
2024/01/31 11:31:20;;;;;;;;;;;20.00;55.60;;;;;;5081680;28;19931;-63
2024/01/31 11:33:46;;;;;;;;;;;20.00;55.50;;;;;;5098366;28;19928;-63
2024/01/31 11:36:11;;;;;;;;;;;20.00;55.50;;;;;;5097340;28;20043;-63
2024/01/31 11:38:37;;;;;;;;;;;20.00;55.50;;;;;;5116588;28;19923;-62
2024/01/31 11:41:02;;;;;;;;;;;20.00;55.50;;;;;;5097736;28;19973;-63
2024/01/31 11:43:28;;;;;;;;;;;19.90;55.40;;;;;;5080450;28;19924;-63
2024/01/31 11:45:53;;;;;;;;;;;20.00;55.50;;;;;;5080888;28;19923;-63
2024/01/31 11:48:19;;;;;;;;;;;19.90;55.50;;;;;;5081413;28;19935;-63
2024/01/31 11:50:44;;;;;;;;;;;19.90;55.50;;;;;;5079347;28;19924;-63
2024/01/31 11:53:10;;;;;;;;;;;19.90;55.50;;;;;;5076370;28;20013;-63
2024/01/31 11:55:35;;;;;;;;;;;19.90;55.50;;;;;;5060759;28;19924;-63
2024/01/31 11:58:01;;;;;;;;;;;19.90;55.40;;;;;;5076861;28;19924;-63
2024/01/31 12:00:27;;;;;;;;;;;19.90;55.40;;;;;;5095586;28;20375;-62
2024/01/31 12:02:52;;;;;;;;;;;19.90;55.50;;;;;;5077253;28;19931;-62
2024/01/31 12:05:18;;;;;;;;;;;19.90;55.50;;;;;;5095118;28;19977;-62
2024/01/31 12:07:54;;;;;;;;;;;19.80;55.40;;;;;;5077407;28;20398;-62
2024/01/31 12:10:19;;;;;;;;;;;19.90;55.40;;;;;;5077287;28;19927;-62
2024/01/31 12:12:45;;;;;;;;;;;19.80;55.40;;;;;;5076612;28;19924;-62
2024/01/31 12:15:12;;;;;;;;;;;19.90;55.40;;;;;;5077266;28;20022;-62
2024/01/31 12:17:38;;;;;;;;;;;19.90;55.40;;;;;;5077256;28;19924;-63
2024/01/31 12:20:08;;;;;;;;;;;19.90;55.40;;;;;;5076384;28;19924;-62
2024/01/31 12:22:37;;;;;;;;;;;19.80;55.30;;;;;;5077063;28;19924;-63
2024/01/31 12:25:03;;;;;;;;;;;19.80;55.30;;;;;;5076951;28;20322;-63
2024/01/31 12:27:28;;;;;;;;;;;19.80;55.30;;;;;;5076356;28;19924;-63
2024/01/31 12:29:54;;;;;;;;;;;19.80;55.30;;;;;;5076897;28;19963;-63
2024/01/31 12:32:19;;;;;;;;;;;19.90;55.30;;;;;;5094582;28;19970;-63
2024/01/31 12:34:45;;;;;;;;;;;19.90;55.40;;;;;;5077184;28;19924;-62
2024/01/31 12:37:10;;;;;;;;;;;19.80;55.20;;;;;;5076224;28;19924;-62
2024/01/31 12:39:36;;;;;;;;;;;19.90;55.30;;;;;;5110029;28;20037;-62
2024/01/31 12:42:02;;;;;;;;;;;19.90;55.40;;;;;;5076792;28;20320;-63
2024/01/31 12:44:27;;;;;;;;;;;19.90;55.40;;;;;;5076930;28;20358;-63
2024/01/31 12:46:53;;;;;;;;;;;19.90;55.30;;;;;;5075887;28;20015;-63
2024/01/31 12:49:18;;;;;;;;;;;19.90;55.30;;;;;;5110532;28;20264;-63
2024/01/31 12:51:44;;;;;;;;;;;19.90;55.30;;;;;;5076463;28;19924;-63
2024/01/31 12:54:09;;;;;;;;;;;19.90;55.30;;;;;;5075383;28;19928;-62
2024/01/31 12:56:35;;;;;;;;;;;19.90;55.20;;;;;;5094623;28;19924;-63
2024/01/31 12:59:01;;;;;;;;;;;19.90;55.20;;;;;;5094362;28;19924;-62
2024/01/31 13:01:26;;;;;;;;;;;19.90;55.20;;;;;;5093694;28;19928;-63
2024/01/31 13:03:52;;;;;;;;;;;19.90;55.20;;;;;;5075599;28;19968;-62
2024/01/31 13:06:17;;;;;;;;;;;19.90;55.10;;;;;;5110038;28;19924;-63
2024/01/31 13:08:42;;;;;;;;;;;20.00;55.20;;;;;;5109688;28;19931;-63
2024/01/31 13:11:09;;;;;;;;;;;19.90;55.10;;;;;;5094213;28;19924;-63
2024/01/31 13:13:38;;;;;;;;;;;20.00;55.10;;;;;;5076087;28;19924;-63
2024/01/31 13:16:04;;;;;;;;;;;20.00;55.10;;;;;;5074731;28;20368;-62
2024/01/31 13:18:30;;;;;;;;;;;20.00;55.10;;;;;;5076007;28;19931;-62
2024/01/31 13:20:55;;;;;;;;;;;20.00;55.10;;;;;;5075346;28;19924;-62
2024/01/31 13:23:21;;;;;;;;;;;20.00;55.00;;;;;;5074667;28;19964;-63
2024/01/31 13:25:49;;;;;;;;;;;20.00;54.90;;;;;;5093799;28;19932;-65
2024/01/31 13:28:16;;;;;;;;;;;20.00;54.90;;;;;;5075092;28;19924;-62
2024/01/31 13:30:45;;;;;;;;;;;20.00;54.80;;;;;;5075214;28;19946;-62
2024/01/31 13:33:11;;;;;;;;;;;20.00;54.90;;;;;;5093624;28;19947;-63
2024/01/31 13:35:37;;;;;;;;;;;20.00;54.90;;;;;;5103463;28;19937;-62
2024/01/31 13:38:02;;;;;;;;;;;20.00;54.90;;;;;;5112820;28;19924;-63
2024/01/31 13:40:28;;;;;;;;;;;20.10;55.00;;;;;;5094990;28;19931;-63
2024/01/31 13:42:56;;;;;;;;;;;20.10;55.10;;;;;;5094081;28;20488;-63
2024/01/31 13:45:22;;;;;;;;;;;20.10;55.10;;;;;;5095285;28;19930;-63
2024/01/31 13:47:47;;;;;;;;;;;20.10;55.00;;;;;;5114097;28;19978;-63
2024/01/31 13:50:13;;;;;;;;;;;20.10;55.10;;;;;;5094999;28;20287;-63
2024/01/31 13:52:39;;;;;;;;;;;20.10;55.00;;;;;;5095859;28;19928;-63
2024/01/31 13:55:05;;;;;;;;;;;20.10;55.10;;;;;;5095345;28;19969;-63
2024/01/31 13:57:30;;;;;;;;;;;20.10;55.10;;;;;;5077834;28;19929;-63
2024/01/31 13:59:56;;;;;;;;;;;20.10;55.00;;;;;;5095236;28;19928;-62
2024/01/31 14:02:22;;;;;;;;;;;20.10;55.00;;;;;;5129982;27;19924;-63
2024/01/31 14:04:48;;;;;;;;;;;20.10;55.00;;;;;;5112302;28;19924;-63
2024/01/31 14:07:13;;;;;;;;;;;20.10;55.10;;;;;;5113418;28;19931;-63
2024/01/31 14:09:39;;;;;;;;;;;20.10;55.10;;;;;;5095294;28;19923;-63